sensor_id;sensor_type;location;lat;lon;timestamp;P1;durP1;ratioP1;P2;durP2;ratioP2
6999;SDS011;3540;53.242;10.408;2022-08-27T00:01:10;29.07;;;19.37;;
6999;SDS011;3540;53.242;10.408;2022-08-27T00:03:40;33.00;;;20.67;;
6999;SDS011;3540;53.242;10.408;2022-08-27T00:06:07;32.57;;;21.07;;
6999;SDS011;3540;53.242;10.408;2022-08-27T00:08:35;32.03;;;20.67;;
6999;SDS011;3540;53.242;10.408;2022-08-27T00:11:01;38.97;;;20.90;;
6999;SDS011;3540;53.242;10.408;2022-08-27T00:13:26;27.60;;;19.53;;
6999;SDS011;3540;53.242;10.408;2022-08-27T00:15:52;36.10;;;20.27;;
6999;SDS011;3540;53.242;10.408;2022-08-27T00:18:18;30.00;;;20.90;;
6999;SDS011;3540;53.242;10.408;2022-08-27T00:20:44;33.40;;;20.47;;
6999;SDS011;3540;53.242;10.408;2022-08-27T00:23:10;31.50;;;19.63;;
6999;SDS011;3540;53.242;10.408;2022-08-27T00:25:35;32.83;;;21.63;;
6999;SDS011;3540;53.242;10.408;2022-08-27T00:28:01;32.87;;;20.50;;
6999;SDS011;3540;53.242;10.408;2022-08-27T00:30:27;36.07;;;21.43;;
6999;SDS011;3540;53.242;10.408;2022-08-27T00:32:53;36.20;;;22.10;;
6999;SDS011;3540;53.242;10.408;2022-08-27T00:35:21;40.83;;;23.80;;
6999;SDS011;3540;53.242;10.408;2022-08-27T00:37:47;36.57;;;23.30;;
6999;SDS011;3540;53.242;10.408;2022-08-27T00:40:15;34.23;;;22.93;;
6999;SDS011;3540;53.242;10.408;2022-08-27T00:42:43;37.30;;;23.17;;
6999;SDS011;3540;53.242;10.408;2022-08-27T00:45:10;41.30;;;23.83;;
6999;SDS011;3540;53.242;10.408;2022-08-27T00:47:40;41.50;;;26.37;;
6999;SDS011;3540;53.242;10.408;2022-08-27T00:50:10;41.00;;;25.33;;
6999;SDS011;3540;53.242;10.408;2022-08-27T00:55:17;47.53;;;27.13;;
6999;SDS011;3540;53.242;10.408;2022-08-27T00:57:47;38.80;;;25.33;;
6999;SDS011;3540;53.242;10.408;2022-08-27T01:00:18;47.53;;;27.53;;
6999;SDS011;3540;53.242;10.408;2022-08-27T01:02:44;51.50;;;30.17;;
6999;SDS011;3540;53.242;10.408;2022-08-27T01:05:12;49.73;;;29.33;;
6999;SDS011;3540;53.242;10.408;2022-08-27T01:07:41;53.63;;;31.23;;
6999;SDS011;3540;53.242;10.408;2022-08-27T01:10:13;51.40;;;29.90;;
6999;SDS011;3540;53.242;10.408;2022-08-27T01:12:42;54.67;;;30.20;;
6999;SDS011;3540;53.242;10.408;2022-08-27T01:15:10;49.27;;;29.87;;
6999;SDS011;3540;53.242;10.408;2022-08-27T01:17:38;50.27;;;28.40;;
6999;SDS011;3540;53.242;10.408;2022-08-27T01:20:05;46.77;;;28.80;;
6999;SDS011;3540;53.242;10.408;2022-08-27T01:22:39;44.93;;;27.73;;
6999;SDS011;3540;53.242;10.408;2022-08-27T01:25:15;50.03;;;27.07;;
6999;SDS011;3540;53.242;10.408;2022-08-27T01:27:43;45.40;;;25.53;;
6999;SDS011;3540;53.242;10.408;2022-08-27T01:30:11;42.87;;;25.27;;
6999;SDS011;3540;53.242;10.408;2022-08-27T01:32:41;47.90;;;25.40;;
6999;SDS011;3540;53.242;10.408;2022-08-27T01:35:10;43.00;;;24.80;;
6999;SDS011;3540;53.242;10.408;2022-08-27T01:37:38;41.47;;;23.10;;
6999;SDS011;3540;53.242;10.408;2022-08-27T01:40:04;38.60;;;21.77;;
6999;SDS011;3540;53.242;10.408;2022-08-27T01:42:39;40.87;;;24.00;;
6999;SDS011;3540;53.242;10.408;2022-08-27T01:45:09;40.20;;;22.33;;
6999;SDS011;3540;53.242;10.408;2022-08-27T01:47:37;45.67;;;22.13;;
6999;SDS011;3540;53.242;10.408;2022-08-27T01:50:08;41.47;;;20.93;;
6999;SDS011;3540;53.242;10.408;2022-08-27T01:52:39;38.87;;;22.27;;
6999;SDS011;3540;53.242;10.408;2022-08-27T01:55:06;37.20;;;22.40;;
6999;SDS011;3540;53.242;10.408;2022-08-27T01:57:34;46.23;;;23.77;;
6999;SDS011;3540;53.242;10.408;2022-08-27T02:00:05;45.43;;;22.93;;
6999;SDS011;3540;53.242;10.408;2022-08-27T02:02:33;38.30;;;22.40;;
6999;SDS011;3540;53.242;10.408;2022-08-27T02:04:59;42.13;;;23.37;;
6999;SDS011;3540;53.242;10.408;2022-08-27T02:07:24;39.27;;;22.27;;
6999;SDS011;3540;53.242;10.408;2022-08-27T02:09:50;41.87;;;23.53;;
6999;SDS011;3540;53.242;10.408;2022-08-27T02:12:16;40.37;;;22.20;;
6999;SDS011;3540;53.242;10.408;2022-08-27T02:14:41;37.90;;;21.10;;
6999;SDS011;3540;53.242;10.408;2022-08-27T02:17:07;43.60;;;24.37;;
6999;SDS011;3540;53.242;10.408;2022-08-27T02:19:32;44.93;;;24.30;;
6999;SDS011;3540;53.242;10.408;2022-08-27T02:21:58;45.07;;;24.30;;
6999;SDS011;3540;53.242;10.408;2022-08-27T02:24:25;39.20;;;22.30;;
6999;SDS011;3540;53.242;10.408;2022-08-27T02:26:52;44.13;;;25.60;;
6999;SDS011;3540;53.242;10.408;2022-08-27T02:29:19;40.10;;;23.57;;
6999;SDS011;3540;53.242;10.408;2022-08-27T02:31:45;40.63;;;22.63;;
6999;SDS011;3540;53.242;10.408;2022-08-27T02:34:11;48.50;;;25.03;;
6999;SDS011;3540;53.242;10.408;2022-08-27T02:36:36;43.80;;;22.60;;
6999;SDS011;3540;53.242;10.408;2022-08-27T02:39:03;44.60;;;24.93;;
6999;SDS011;3540;53.242;10.408;2022-08-27T02:41:30;45.20;;;24.63;;
6999;SDS011;3540;53.242;10.408;2022-08-27T02:43:55;46.50;;;25.87;;
6999;SDS011;3540;53.242;10.408;2022-08-27T02:46:21;42.03;;;24.70;;
6999;SDS011;3540;53.242;10.408;2022-08-27T02:48:47;47.43;;;26.90;;
6999;SDS011;3540;53.242;10.408;2022-08-27T02:51:12;44.90;;;25.27;;
6999;SDS011;3540;53.242;10.408;2022-08-27T02:53:38;45.63;;;27.30;;
6999;SDS011;3540;53.242;10.408;2022-08-27T02:56:05;43.90;;;26.73;;
6999;SDS011;3540;53.242;10.408;2022-08-27T02:58:31;46.90;;;26.17;;
6999;SDS011;3540;53.242;10.408;2022-08-27T03:01:00;44.90;;;25.70;;
6999;SDS011;3540;53.242;10.408;2022-08-27T03:03:27;52.33;;;26.80;;
6999;SDS011;3540;53.242;10.408;2022-08-27T03:05:53;50.77;;;27.00;;
6999;SDS011;3540;53.242;10.408;2022-08-27T03:08:19;46.13;;;25.87;;
6999;SDS011;3540;53.242;10.408;2022-08-27T03:10:45;46.53;;;26.37;;
6999;SDS011;3540;53.242;10.408;2022-08-27T03:13:10;51.70;;;25.50;;
6999;SDS011;3540;53.242;10.408;2022-08-27T03:15:36;46.87;;;25.17;;
6999;SDS011;3540;53.242;10.408;2022-08-27T03:18:02;45.93;;;25.07;;
6999;SDS011;3540;53.242;10.408;2022-08-27T03:20:44;43.53;;;25.20;;
6999;SDS011;3540;53.242;10.408;2022-08-27T03:23:12;48.13;;;25.43;;
6999;SDS011;3540;53.242;10.408;2022-08-27T03:25:41;45.77;;;23.63;;
6999;SDS011;3540;53.242;10.408;2022-08-27T03:28:08;49.43;;;25.93;;
6999;SDS011;3540;53.242;10.408;2022-08-27T03:30:34;48.57;;;26.47;;
6999;SDS011;3540;53.242;10.408;2022-08-27T03:33:00;47.10;;;25.57;;
6999;SDS011;3540;53.242;10.408;2022-08-27T03:35:25;45.40;;;26.23;;
6999;SDS011;3540;53.242;10.408;2022-08-27T03:37:51;46.63;;;27.77;;
6999;SDS011;3540;53.242;10.408;2022-08-27T03:40:17;54.33;;;28.57;;
6999;SDS011;3540;53.242;10.408;2022-08-27T03:42:43;47.77;;;29.33;;
6999;SDS011;3540;53.242;10.408;2022-08-27T03:45:10;57.13;;;30.30;;
6999;SDS011;3540;53.242;10.408;2022-08-27T03:47:36;51.23;;;31.40;;
6999;SDS011;3540;53.242;10.408;2022-08-27T03:50:02;54.97;;;32.20;;
6999;SDS011;3540;53.242;10.408;2022-08-27T03:52:31;56.67;;;31.70;;
6999;SDS011;3540;53.242;10.408;2022-08-27T03:54:58;56.67;;;33.10;;
6999;SDS011;3540;53.242;10.408;2022-08-27T03:57:25;58.50;;;30.60;;
6999;SDS011;3540;53.242;10.408;2022-08-27T03:59:51;56.37;;;30.80;;
6999;SDS011;3540;53.242;10.408;2022-08-27T04:02:17;57.83;;;31.20;;
6999;SDS011;3540;53.242;10.408;2022-08-27T04:04:43;55.03;;;31.20;;
6999;SDS011;3540;53.242;10.408;2022-08-27T04:07:08;61.13;;;31.10;;
6999;SDS011;3540;53.242;10.408;2022-08-27T04:09:34;57.27;;;29.93;;
6999;SDS011;3540;53.242;10.408;2022-08-27T04:12:00;55.50;;;30.53;;
6999;SDS011;3540;53.242;10.408;2022-08-27T04:14:25;61.17;;;30.53;;
6999;SDS011;3540;53.242;10.408;2022-08-27T04:16:51;53.23;;;30.40;;
6999;SDS011;3540;53.242;10.408;2022-08-27T04:19:18;65.63;;;31.83;;
6999;SDS011;3540;53.242;10.408;2022-08-27T04:21:44;65.20;;;29.43;;
6999;SDS011;3540;53.242;10.408;2022-08-27T04:24:10;51.17;;;29.37;;
6999;SDS011;3540;53.242;10.408;2022-08-27T04:26:37;54.10;;;29.43;;
6999;SDS011;3540;53.242;10.408;2022-08-27T04:29:04;49.90;;;26.90;;
6999;SDS011;3540;53.242;10.408;2022-08-27T04:31:30;50.27;;;28.53;;
6999;SDS011;3540;53.242;10.408;2022-08-27T04:33:55;51.33;;;26.87;;
6999;SDS011;3540;53.242;10.408;2022-08-27T04:36:21;55.37;;;27.27;;
6999;SDS011;3540;53.242;10.408;2022-08-27T04:38:47;53.13;;;27.40;;
6999;SDS011;3540;53.242;10.408;2022-08-27T04:41:13;48.73;;;27.03;;
6999;SDS011;3540;53.242;10.408;2022-08-27T04:43:50;49.53;;;25.70;;
6999;SDS011;3540;53.242;10.408;2022-08-27T04:46:31;50.23;;;27.67;;
6999;SDS011;3540;53.242;10.408;2022-08-27T04:48:59;50.70;;;25.93;;
6999;SDS011;3540;53.242;10.408;2022-08-27T04:51:26;46.73;;;27.33;;
6999;SDS011;3540;53.242;10.408;2022-08-27T04:53:53;46.90;;;25.87;;
6999;SDS011;3540;53.242;10.408;2022-08-27T04:56:19;46.73;;;26.13;;
6999;SDS011;3540;53.242;10.408;2022-08-27T04:58:46;51.27;;;24.70;;
6999;SDS011;3540;53.242;10.408;2022-08-27T05:01:15;55.50;;;27.73;;
6999;SDS011;3540;53.242;10.408;2022-08-27T05:03:52;48.03;;;26.27;;
6999;SDS011;3540;53.242;10.408;2022-08-27T05:06:18;52.30;;;25.70;;
6999;SDS011;3540;53.242;10.408;2022-08-27T05:08:47;43.83;;;25.67;;
6999;SDS011;3540;53.242;10.408;2022-08-27T05:11:14;46.00;;;25.97;;
6999;SDS011;3540;53.242;10.408;2022-08-27T05:13:42;45.03;;;23.97;;
6999;SDS011;3540;53.242;10.408;2022-08-27T05:16:10;45.30;;;25.33;;
6999;SDS011;3540;53.242;10.408;2022-08-27T05:18:38;41.07;;;23.63;;
6999;SDS011;3540;53.242;10.408;2022-08-27T05:21:05;45.67;;;24.80;;
6999;SDS011;3540;53.242;10.408;2022-08-27T05:23:31;50.47;;;24.50;;
6999;SDS011;3540;53.242;10.408;2022-08-27T05:25:57;49.83;;;25.77;;
6999;SDS011;3540;53.242;10.408;2022-08-27T05:28:24;51.17;;;26.10;;
6999;SDS011;3540;53.242;10.408;2022-08-27T05:30:52;54.50;;;29.53;;
6999;SDS011;3540;53.242;10.408;2022-08-27T05:33:21;50.20;;;28.83;;
6999;SDS011;3540;53.242;10.408;2022-08-27T05:35:55;53.67;;;29.20;;
6999;SDS011;3540;53.242;10.408;2022-08-27T05:38:23;60.40;;;29.73;;
6999;SDS011;3540;53.242;10.408;2022-08-27T05:41:00;56.00;;;28.90;;
6999;SDS011;3540;53.242;10.408;2022-08-27T05:43:34;52.67;;;27.53;;
6999;SDS011;3540;53.242;10.408;2022-08-27T05:46:04;46.97;;;26.70;;
6999;SDS011;3540;53.242;10.408;2022-08-27T05:48:32;47.43;;;25.43;;
6999;SDS011;3540;53.242;10.408;2022-08-27T05:51:05;45.17;;;24.27;;
6999;SDS011;3540;53.242;10.408;2022-08-27T05:53:33;42.20;;;24.80;;
6999;SDS011;3540;53.242;10.408;2022-08-27T05:55:59;47.30;;;25.87;;
6999;SDS011;3540;53.242;10.408;2022-08-27T05:58:24;42.13;;;23.93;;
6999;SDS011;3540;53.242;10.408;2022-08-27T06:01:09;46.57;;;24.53;;
6999;SDS011;3540;53.242;10.408;2022-08-27T06:03:36;44.93;;;24.80;;
6999;SDS011;3540;53.242;10.408;2022-08-27T06:06:06;38.53;;;23.60;;
6999;SDS011;3540;53.242;10.408;2022-08-27T06:08:33;41.90;;;23.20;;
6999;SDS011;3540;53.242;10.408;2022-08-27T06:11:00;42.97;;;24.03;;
6999;SDS011;3540;53.242;10.408;2022-08-27T06:13:27;46.93;;;28.50;;
6999;SDS011;3540;53.242;10.408;2022-08-27T06:16:01;46.27;;;28.57;;
6999;SDS011;3540;53.242;10.408;2022-08-27T06:18:27;43.67;;;26.97;;
6999;SDS011;3540;53.242;10.408;2022-08-27T06:20:53;47.00;;;28.23;;
6999;SDS011;3540;53.242;10.408;2022-08-27T06:23:18;47.13;;;30.00;;
6999;SDS011;3540;53.242;10.408;2022-08-27T06:25:44;50.93;;;30.87;;
6999;SDS011;3540;53.242;10.408;2022-08-27T06:28:10;46.77;;;29.57;;
6999;SDS011;3540;53.242;10.408;2022-08-27T06:30:37;45.83;;;31.17;;
6999;SDS011;3540;53.242;10.408;2022-08-27T06:33:03;43.60;;;29.93;;
6999;SDS011;3540;53.242;10.408;2022-08-27T06:35:29;52.00;;;32.70;;
6999;SDS011;3540;53.242;10.408;2022-08-27T06:37:54;47.00;;;31.83;;
6999;SDS011;3540;53.242;10.408;2022-08-27T06:40:20;52.90;;;33.93;;
6999;SDS011;3540;53.242;10.408;2022-08-27T06:42:46;59.30;;;35.27;;
6999;SDS011;3540;53.242;10.408;2022-08-27T06:45:12;52.00;;;33.20;;
6999;SDS011;3540;53.242;10.408;2022-08-27T06:47:38;48.77;;;32.30;;
6999;SDS011;3540;53.242;10.408;2022-08-27T06:50:03;51.90;;;30.93;;
6999;SDS011;3540;53.242;10.408;2022-08-27T06:52:29;45.10;;;29.70;;
6999;SDS011;3540;53.242;10.408;2022-08-27T06:54:55;49.77;;;29.03;;
6999;SDS011;3540;53.242;10.408;2022-08-27T06:57:21;46.67;;;28.97;;
6999;SDS011;3540;53.242;10.408;2022-08-27T06:59:49;44.40;;;26.43;;
6999;SDS011;3540;53.242;10.408;2022-08-27T07:02:15;42.33;;;27.73;;
6999;SDS011;3540;53.242;10.408;2022-08-27T07:04:41;48.60;;;28.30;;
6999;SDS011;3540;53.242;10.408;2022-08-27T07:07:09;47.70;;;27.23;;
6999;SDS011;3540;53.242;10.408;2022-08-27T07:09:35;53.17;;;27.80;;
6999;SDS011;3540;53.242;10.408;2022-08-27T07:12:01;41.23;;;24.80;;
6999;SDS011;3540;53.242;10.408;2022-08-27T07:14:28;35.83;;;24.00;;
6999;SDS011;3540;53.242;10.408;2022-08-27T07:16:54;38.77;;;23.67;;
6999;SDS011;3540;53.242;10.408;2022-08-27T07:19:20;36.77;;;23.00;;
6999;SDS011;3540;53.242;10.408;2022-08-27T07:21:45;34.47;;;23.03;;
6999;SDS011;3540;53.242;10.408;2022-08-27T07:24:12;36.73;;;21.50;;
6999;SDS011;3540;53.242;10.408;2022-08-27T07:26:40;39.70;;;23.30;;
6999;SDS011;3540;53.242;10.408;2022-08-27T07:29:07;34.67;;;22.63;;
6999;SDS011;3540;53.242;10.408;2022-08-27T07:31:36;39.83;;;21.37;;
6999;SDS011;3540;53.242;10.408;2022-08-27T07:34:03;33.50;;;20.03;;
6999;SDS011;3540;53.242;10.408;2022-08-27T07:36:30;29.63;;;20.40;;
6999;SDS011;3540;53.242;10.408;2022-08-27T07:38:56;32.83;;;21.97;;
6999;SDS011;3540;53.242;10.408;2022-08-27T07:41:22;33.73;;;20.97;;
6999;SDS011;3540;53.242;10.408;2022-08-27T07:43:49;30.63;;;21.90;;
6999;SDS011;3540;53.242;10.408;2022-08-27T07:46:33;37.00;;;21.83;;
6999;SDS011;3540;53.242;10.408;2022-08-27T07:48:58;35.10;;;21.73;;
6999;SDS011;3540;53.242;10.408;2022-08-27T07:51:25;32.83;;;21.27;;
6999;SDS011;3540;53.242;10.408;2022-08-27T07:53:52;30.97;;;20.10;;
6999;SDS011;3540;53.242;10.408;2022-08-27T07:56:18;31.90;;;19.57;;
6999;SDS011;3540;53.242;10.408;2022-08-27T07:58:45;31.23;;;19.13;;
6999;SDS011;3540;53.242;10.408;2022-08-27T08:01:11;30.57;;;19.23;;
6999;SDS011;3540;53.242;10.408;2022-08-27T08:03:37;29.13;;;18.20;;
6999;SDS011;3540;53.242;10.408;2022-08-27T08:06:10;26.27;;;17.90;;
6999;SDS011;3540;53.242;10.408;2022-08-27T08:08:39;26.73;;;17.93;;
6999;SDS011;3540;53.242;10.408;2022-08-27T08:11:05;26.60;;;17.33;;
6999;SDS011;3540;53.242;10.408;2022-08-27T08:13:33;32.37;;;18.03;;
6999;SDS011;3540;53.242;10.408;2022-08-27T08:15:59;29.27;;;17.73;;
6999;SDS011;3540;53.242;10.408;2022-08-27T08:18:25;33.40;;;19.30;;
6999;SDS011;3540;53.242;10.408;2022-08-27T08:20:51;35.80;;;21.80;;
6999;SDS011;3540;53.242;10.408;2022-08-27T08:23:17;38.77;;;22.43;;
6999;SDS011;3540;53.242;10.408;2022-08-27T08:25:42;43.83;;;26.27;;
6999;SDS011;3540;53.242;10.408;2022-08-27T08:28:08;48.67;;;31.10;;
6999;SDS011;3540;53.242;10.408;2022-08-27T08:30:35;49.67;;;32.77;;
6999;SDS011;3540;53.242;10.408;2022-08-27T08:33:01;54.33;;;34.13;;
6999;SDS011;3540;53.242;10.408;2022-08-27T08:35:27;53.27;;;32.43;;
6999;SDS011;3540;53.242;10.408;2022-08-27T08:37:53;44.07;;;28.13;;
6999;SDS011;3540;53.242;10.408;2022-08-27T08:40:40;40.03;;;28.03;;
6999;SDS011;3540;53.242;10.408;2022-08-27T08:43:11;43.00;;;27.37;;
6999;SDS011;3540;53.242;10.408;2022-08-27T08:45:45;41.37;;;26.20;;
6999;SDS011;3540;53.242;10.408;2022-08-27T08:48:16;42.97;;;25.60;;
6999;SDS011;3540;53.242;10.408;2022-08-27T08:56:29;43.40;;;29.03;;
6999;SDS011;3540;53.242;10.408;2022-08-27T08:59:02;46.00;;;29.67;;
6999;SDS011;3540;53.242;10.408;2022-08-27T09:01:53;43.10;;;29.53;;
6999;SDS011;3540;53.242;10.408;2022-08-27T09:04:19;44.77;;;30.63;;
6999;SDS011;3540;53.242;10.408;2022-08-27T09:09:26;38.23;;;26.93;;
6999;SDS011;3540;53.242;10.408;2022-08-27T09:11:58;36.77;;;28.03;;
6999;SDS011;3540;53.242;10.408;2022-08-27T09:14:37;41.53;;;29.50;;
6999;SDS011;3540;53.242;10.408;2022-08-27T09:17:22;38.57;;;29.23;;
6999;SDS011;3540;53.242;10.408;2022-08-27T09:19:48;36.70;;;25.87;;
6999;SDS011;3540;53.242;10.408;2022-08-27T09:22:21;31.07;;;24.80;;
6999;SDS011;3540;53.242;10.408;2022-08-27T09:27:47;36.27;;;23.37;;
6999;SDS011;3540;53.242;10.408;2022-08-27T09:30:19;35.23;;;24.50;;
6999;SDS011;3540;53.242;10.408;2022-08-27T09:33:20;31.30;;;23.47;;
6999;SDS011;3540;53.242;10.408;2022-08-27T09:35:42;32.73;;;22.90;;
6999;SDS011;3540;53.242;10.408;2022-08-27T09:38:10;28.20;;;22.20;;
6999;SDS011;3540;53.242;10.408;2022-08-27T09:40:48;31.17;;;24.30;;
6999;SDS011;3540;53.242;10.408;2022-08-27T09:45:48;29.87;;;20.63;;
6999;SDS011;3540;53.242;10.408;2022-08-27T09:48:35;26.60;;;19.23;;
6999;SDS011;3540;53.242;10.408;2022-08-27T09:51:05;28.40;;;17.50;;
6999;SDS011;3540;53.242;10.408;2022-08-27T09:56:09;28.63;;;19.73;;
6999;SDS011;3540;53.242;10.408;2022-08-27T09:58:55;30.30;;;19.33;;
6999;SDS011;3540;53.242;10.408;2022-08-27T10:01:30;27.13;;;19.00;;
6999;SDS011;3540;53.242;10.408;2022-08-27T10:06:50;32.67;;;21.40;;
6999;SDS011;3540;53.242;10.408;2022-08-27T10:09:17;29.67;;;22.03;;
6999;SDS011;3540;53.242;10.408;2022-08-27T10:12:10;33.20;;;24.73;;
6999;SDS011;3540;53.242;10.408;2022-08-27T10:15:00;37.33;;;25.57;;
6999;SDS011;3540;53.242;10.408;2022-08-27T10:20:24;28.10;;;22.50;;
6999;SDS011;3540;53.242;10.408;2022-08-27T10:26:19;32.83;;;24.43;;
6999;SDS011;3540;53.242;10.408;2022-08-27T10:31:35;39.00;;;22.30;;
6999;SDS011;3540;53.242;10.408;2022-08-27T10:42:39;33.57;;;23.97;;
6999;SDS011;3540;53.242;10.408;2022-08-27T10:45:17;32.03;;;21.13;;
6999;SDS011;3540;53.242;10.408;2022-08-27T10:50:47;31.87;;;19.27;;
6999;SDS011;3540;53.242;10.408;2022-08-27T11:06:54;22.33;;;14.63;;
6999;SDS011;3540;53.242;10.408;2022-08-27T11:12:24;17.97;;;13.70;;
6999;SDS011;3540;53.242;10.408;2022-08-27T11:14:56;17.93;;;13.17;;
6999;SDS011;3540;53.242;10.408;2022-08-27T11:22:55;14.77;;;12.33;;
6999;SDS011;3540;53.242;10.408;2022-08-27T11:28:22;14.37;;;11.03;;
6999;SDS011;3540;53.242;10.408;2022-08-27T11:31:21;12.77;;;11.17;;
6999;SDS011;3540;53.242;10.408;2022-08-27T11:44:31;18.20;;;15.10;;
6999;SDS011;3540;53.242;10.408;2022-08-27T11:47:11;19.10;;;14.77;;
6999;SDS011;3540;53.242;10.408;2022-08-27T11:49:43;17.03;;;13.73;;
6999;SDS011;3540;53.242;10.408;2022-08-27T11:52:21;18.43;;;13.47;;
6999;SDS011;3540;53.242;10.408;2022-08-27T11:54:56;17.63;;;13.47;;
6999;SDS011;3540;53.242;10.408;2022-08-27T11:57:36;20.03;;;12.97;;
6999;SDS011;3540;53.242;10.408;2022-08-27T12:02:41;16.87;;;12.67;;
6999;SDS011;3540;53.242;10.408;2022-08-27T12:05:19;17.43;;;12.50;;
6999;SDS011;3540;53.242;10.408;2022-08-27T12:07:48;18.33;;;12.67;;
6999;SDS011;3540;53.242;10.408;2022-08-27T12:10:23;24.43;;;15.53;;
6999;SDS011;3540;53.242;10.408;2022-08-27T12:26:31;27.73;;;18.17;;
6999;SDS011;3540;53.242;10.408;2022-08-27T12:31:48;31.77;;;18.27;;
6999;SDS011;3540;53.242;10.408;2022-08-27T12:34:27;27.87;;;17.57;;
6999;SDS011;3540;53.242;10.408;2022-08-27T12:36:55;28.37;;;18.10;;
6999;SDS011;3540;53.242;10.408;2022-08-27T12:39:23;25.93;;;16.40;;
6999;SDS011;3540;53.242;10.408;2022-08-27T12:41:52;29.07;;;17.13;;
6999;SDS011;3540;53.242;10.408;2022-08-27T12:44:28;27.33;;;16.90;;
6999;SDS011;3540;53.242;10.408;2022-08-27T12:46:58;24.40;;;15.80;;
6999;SDS011;3540;53.242;10.408;2022-08-27T12:49:29;25.53;;;16.70;;
6999;SDS011;3540;53.242;10.408;2022-08-27T12:52:13;30.23;;;15.43;;
6999;SDS011;3540;53.242;10.408;2022-08-27T12:54:57;23.80;;;15.23;;
6999;SDS011;3540;53.242;10.408;2022-08-27T13:00:28;27.10;;;17.17;;
6999;SDS011;3540;53.242;10.408;2022-08-27T13:03:14;28.47;;;16.63;;
6999;SDS011;3540;53.242;10.408;2022-08-27T13:05:50;28.77;;;16.30;;
6999;SDS011;3540;53.242;10.408;2022-08-27T13:08:30;34.13;;;16.43;;
6999;SDS011;3540;53.242;10.408;2022-08-27T13:13:33;32.47;;;17.20;;
6999;SDS011;3540;53.242;10.408;2022-08-27T13:16:01;30.97;;;18.10;;
6999;SDS011;3540;53.242;10.408;2022-08-27T13:18:28;30.53;;;19.17;;
6999;SDS011;3540;53.242;10.408;2022-08-27T13:21:28;32.60;;;19.13;;
6999;SDS011;3540;53.242;10.408;2022-08-27T13:23:52;29.43;;;18.50;;
6999;SDS011;3540;53.242;10.408;2022-08-27T13:26:23;29.27;;;17.93;;
6999;SDS011;3540;53.242;10.408;2022-08-27T13:28:53;29.93;;;19.43;;
6999;SDS011;3540;53.242;10.408;2022-08-27T13:31:20;31.33;;;18.10;;
6999;SDS011;3540;53.242;10.408;2022-08-27T13:33:47;27.47;;;16.13;;
6999;SDS011;3540;53.242;10.408;2022-08-27T13:36:24;25.17;;;14.37;;
6999;SDS011;3540;53.242;10.408;2022-08-27T13:39:01;19.30;;;11.27;;
6999;SDS011;3540;53.242;10.408;2022-08-27T13:41:31;20.40;;;9.73;;
6999;SDS011;3540;53.242;10.408;2022-08-27T13:44:06;17.10;;;10.03;;
6999;SDS011;3540;53.242;10.408;2022-08-27T13:46:43;19.90;;;9.33;;
6999;SDS011;3540;53.242;10.408;2022-08-27T13:49:13;18.70;;;8.82;;
6999;SDS011;3540;53.242;10.408;2022-08-27T13:51:42;17.30;;;8.38;;
6999;SDS011;3540;53.242;10.408;2022-08-27T13:54:09;19.73;;;8.60;;
6999;SDS011;3540;53.242;10.408;2022-08-27T13:56:38;15.45;;;6.78;;
6999;SDS011;3540;53.242;10.408;2022-08-27T13:59:10;15.43;;;6.30;;
6999;SDS011;3540;53.242;10.408;2022-08-27T14:01:41;14.45;;;6.75;;
6999;SDS011;3540;53.242;10.408;2022-08-27T14:04:23;15.52;;;5.72;;
6999;SDS011;3540;53.242;10.408;2022-08-27T14:06:51;11.45;;;5.40;;
6999;SDS011;3540;53.242;10.408;2022-08-27T14:09:22;9.68;;;4.45;;
6999;SDS011;3540;53.242;10.408;2022-08-27T14:12:01;9.32;;;3.88;;
6999;SDS011;3540;53.242;10.408;2022-08-27T14:14:30;11.60;;;3.60;;
6999;SDS011;3540;53.242;10.408;2022-08-27T14:17:04;12.90;;;3.78;;
6999;SDS011;3540;53.242;10.408;2022-08-27T14:19:43;7.43;;;3.35;;
6999;SDS011;3540;53.242;10.408;2022-08-27T14:22:08;12.25;;;3.63;;
6999;SDS011;3540;53.242;10.408;2022-08-27T14:24:34;8.32;;;3.25;;
6999;SDS011;3540;53.242;10.408;2022-08-27T14:27:04;10.13;;;3.38;;
6999;SDS011;3540;53.242;10.408;2022-08-27T14:29:33;8.57;;;3.25;;
6999;SDS011;3540;53.242;10.408;2022-08-27T14:31:58;11.05;;;3.15;;
6999;SDS011;3540;53.242;10.408;2022-08-27T14:34:24;16.00;;;3.78;;
6999;SDS011;3540;53.242;10.408;2022-08-27T14:36:49;10.35;;;2.80;;
6999;SDS011;3540;53.242;10.408;2022-08-27T14:39:15;12.02;;;3.67;;
6999;SDS011;3540;53.242;10.408;2022-08-27T14:41:41;7.40;;;3.10;;
6999;SDS011;3540;53.242;10.408;2022-08-27T14:44:06;14.50;;;3.45;;
6999;SDS011;3540;53.242;10.408;2022-08-27T14:46:32;8.82;;;3.08;;
6999;SDS011;3540;53.242;10.408;2022-08-27T14:49:00;9.55;;;2.70;;
6999;SDS011;3540;53.242;10.408;2022-08-27T14:51:35;9.50;;;3.22;;
6999;SDS011;3540;53.242;10.408;2022-08-27T14:54:02;8.48;;;3.40;;
6999;SDS011;3540;53.242;10.408;2022-08-27T14:56:28;10.20;;;2.88;;
6999;SDS011;3540;53.242;10.408;2022-08-27T14:58:54;7.95;;;3.03;;
6999;SDS011;3540;53.242;10.408;2022-08-27T15:01:21;11.27;;;3.03;;
6999;SDS011;3540;53.242;10.408;2022-08-27T15:03:48;11.07;;;3.30;;
6999;SDS011;3540;53.242;10.408;2022-08-27T15:06:16;10.50;;;3.05;;
6999;SDS011;3540;53.242;10.408;2022-08-27T15:08:43;11.68;;;3.22;;
6999;SDS011;3540;53.242;10.408;2022-08-27T15:11:14;10.50;;;3.15;;
6999;SDS011;3540;53.242;10.408;2022-08-27T15:13:41;12.38;;;3.60;;
6999;SDS011;3540;53.242;10.408;2022-08-27T15:16:07;8.10;;;2.85;;
6999;SDS011;3540;53.242;10.408;2022-08-27T15:18:33;8.75;;;3.00;;
6999;SDS011;3540;53.242;10.408;2022-08-27T15:20:59;9.48;;;2.90;;
6999;SDS011;3540;53.242;10.408;2022-08-27T15:23:24;12.52;;;3.53;;
6999;SDS011;3540;53.242;10.408;2022-08-27T15:25:50;10.65;;;3.20;;
6999;SDS011;3540;53.242;10.408;2022-08-27T15:28:16;7.65;;;3.10;;
6999;SDS011;3540;53.242;10.408;2022-08-27T15:30:41;10.05;;;2.88;;
6999;SDS011;3540;53.242;10.408;2022-08-27T15:33:07;8.20;;;2.55;;
6999;SDS011;3540;53.242;10.408;2022-08-27T15:35:33;12.20;;;3.55;;
6999;SDS011;3540;53.242;10.408;2022-08-27T15:37:59;7.80;;;3.25;;
6999;SDS011;3540;53.242;10.408;2022-08-27T15:40:26;8.15;;;2.88;;
6999;SDS011;3540;53.242;10.408;2022-08-27T15:42:56;9.88;;;3.00;;
6999;SDS011;3540;53.242;10.408;2022-08-27T15:45:24;10.65;;;3.00;;
6999;SDS011;3540;53.242;10.408;2022-08-27T15:47:50;9.32;;;2.75;;
6999;SDS011;3540;53.242;10.408;2022-08-27T15:50:16;7.78;;;2.95;;
6999;SDS011;3540;53.242;10.408;2022-08-27T15:52:41;11.10;;;3.25;;
6999;SDS011;3540;53.242;10.408;2022-08-27T15:55:19;7.43;;;2.72;;
6999;SDS011;3540;53.242;10.408;2022-08-27T15:57:48;9.77;;;3.45;;
6999;SDS011;3540;53.242;10.408;2022-08-27T16:00:14;11.95;;;3.05;;
6999;SDS011;3540;53.242;10.408;2022-08-27T16:02:41;7.68;;;2.95;;
6999;SDS011;3540;53.242;10.408;2022-08-27T16:05:08;10.20;;;3.55;;
6999;SDS011;3540;53.242;10.408;2022-08-27T16:07:35;6.30;;;2.72;;
6999;SDS011;3540;53.242;10.408;2022-08-27T16:10:00;9.57;;;2.70;;
6999;SDS011;3540;53.242;10.408;2022-08-27T16:12:26;13.55;;;3.10;;
6999;SDS011;3540;53.242;10.408;2022-08-27T16:14:53;11.75;;;3.10;;
6999;SDS011;3540;53.242;10.408;2022-08-27T16:17:19;10.40;;;2.50;;
6999;SDS011;3540;53.242;10.408;2022-08-27T16:19:45;5.47;;;2.40;;
6999;SDS011;3540;53.242;10.408;2022-08-27T16:22:10;8.05;;;2.70;;
6999;SDS011;3540;53.242;10.408;2022-08-27T16:24:36;8.25;;;2.50;;
6999;SDS011;3540;53.242;10.408;2022-08-27T16:27:01;7.90;;;2.78;;
6999;SDS011;3540;53.242;10.408;2022-08-27T16:29:27;12.02;;;2.88;;
6999;SDS011;3540;53.242;10.408;2022-08-27T16:31:53;9.90;;;2.53;;